sensor_id;sensor_type;location;lat;lon;timestamp;P1;durP1;ratioP1;P2;durP2;ratioP2
73872;SDS011;62206;47.568;9.364;2024-01-07T00:01:45;7.90;;;7.10;;
73872;SDS011;62206;47.568;9.364;2024-01-07T00:04:14;8.82;;;8.02;;
73872;SDS011;62206;47.568;9.364;2024-01-07T00:06:42;8.10;;;7.30;;
73872;SDS011;62206;47.568;9.364;2024-01-07T00:09:10;8.25;;;7.47;;
73872;SDS011;62206;47.568;9.364;2024-01-07T00:11:37;7.10;;;6.40;;
73872;SDS011;62206;47.568;9.364;2024-01-07T00:14:04;8.40;;;7.50;;
73872;SDS011;62206;47.568;9.364;2024-01-07T00:16:31;8.05;;;7.35;;
73872;SDS011;62206;47.568;9.364;2024-01-07T00:18:59;6.95;;;6.25;;
73872;SDS011;62206;47.568;9.364;2024-01-07T00:21:28;8.50;;;7.78;;
73872;SDS011;62206;47.568;9.364;2024-01-07T00:23:55;7.17;;;6.43;;
73872;SDS011;62206;47.568;9.364;2024-01-07T00:26:22;8.07;;;7.28;;
73872;SDS011;62206;47.568;9.364;2024-01-07T00:28:49;9.30;;;8.40;;
73872;SDS011;62206;47.568;9.364;2024-01-07T00:31:16;10.05;;;7.63;;
73872;SDS011;62206;47.568;9.364;2024-01-07T00:33:43;9.15;;;8.23;;
73872;SDS011;62206;47.568;9.364;2024-01-07T00:36:10;9.50;;;8.43;;
73872;SDS011;62206;47.568;9.364;2024-01-07T00:38:39;10.50;;;9.40;;
73872;SDS011;62206;47.568;9.364;2024-01-07T00:41:06;10.02;;;9.02;;
73872;SDS011;62206;47.568;9.364;2024-01-07T00:43:33;8.77;;;7.88;;
73872;SDS011;62206;47.568;9.364;2024-01-07T00:46:00;9.50;;;8.50;;
73872;SDS011;62206;47.568;9.364;2024-01-07T00:48:27;9.37;;;8.37;;
73872;SDS011;62206;47.568;9.364;2024-01-07T00:50:54;8.50;;;7.70;;
73872;SDS011;62206;47.568;9.364;2024-01-07T00:53:21;9.27;;;8.38;;
73872;SDS011;62206;47.568;9.364;2024-01-07T00:55:49;8.73;;;7.90;;
73872;SDS011;62206;47.568;9.364;2024-01-07T00:58:17;9.13;;;8.23;;
73872;SDS011;62206;47.568;9.364;2024-01-07T01:00:44;8.63;;;7.83;;
73872;SDS011;62206;47.568;9.364;2024-01-07T01:03:10;8.13;;;7.20;;
73872;SDS011;62206;47.568;9.364;2024-01-07T01:05:38;9.10;;;8.25;;
73872;SDS011;62206;47.568;9.364;2024-01-07T01:08:05;8.40;;;7.60;;
73872;SDS011;62206;47.568;9.364;2024-01-07T01:10:32;8.93;;;8.02;;
73872;SDS011;62206;47.568;9.364;2024-01-07T01:13:01;8.17;;;7.37;;
73872;SDS011;62206;47.568;9.364;2024-01-07T01:15:27;9.30;;;8.40;;
73872;SDS011;62206;47.568;9.364;2024-01-07T01:17:54;9.25;;;8.40;;
73872;SDS011;62206;47.568;9.364;2024-01-07T01:20:22;7.80;;;7.00;;
73872;SDS011;62206;47.568;9.364;2024-01-07T01:22:49;8.43;;;7.63;;
73872;SDS011;62206;47.568;9.364;2024-01-07T01:25:16;8.43;;;7.53;;
73872;SDS011;62206;47.568;9.364;2024-01-07T01:27:43;8.55;;;7.68;;
73872;SDS011;62206;47.568;9.364;2024-01-07T01:30:12;8.98;;;8.07;;
73872;SDS011;62206;47.568;9.364;2024-01-07T01:32:39;8.38;;;7.47;;
73872;SDS011;62206;47.568;9.364;2024-01-07T01:35:07;8.90;;;8.00;;
73872;SDS011;62206;47.568;9.364;2024-01-07T01:37:35;8.77;;;7.87;;
73872;SDS011;62206;47.568;9.364;2024-01-07T01:40:02;8.30;;;7.50;;
73872;SDS011;62206;47.568;9.364;2024-01-07T01:42:30;8.85;;;7.95;;
73872;SDS011;62206;47.568;9.364;2024-01-07T01:44:57;8.90;;;8.02;;
73872;SDS011;62206;47.568;9.364;2024-01-07T01:47:28;8.63;;;7.78;;
73872;SDS011;62206;47.568;9.364;2024-01-07T01:49:55;7.97;;;7.17;;
73872;SDS011;62206;47.568;9.364;2024-01-07T01:52:23;7.55;;;6.85;;
73872;SDS011;62206;47.568;9.364;2024-01-07T01:54:49;7.70;;;6.93;;
73872;SDS011;62206;47.568;9.364;2024-01-07T01:57:19;7.63;;;6.93;;
73872;SDS011;62206;47.568;9.364;2024-01-07T01:59:48;7.60;;;6.93;;
73872;SDS011;62206;47.568;9.364;2024-01-07T02:02:15;7.73;;;7.03;;
73872;SDS011;62206;47.568;9.364;2024-01-07T02:04:44;7.35;;;6.65;;
73872;SDS011;62206;47.568;9.364;2024-01-07T02:07:11;7.88;;;7.18;;
73872;SDS011;62206;47.568;9.364;2024-01-07T02:09:39;7.72;;;6.93;;
73872;SDS011;62206;47.568;9.364;2024-01-07T02:12:07;7.95;;;7.25;;
73872;SDS011;62206;47.568;9.364;2024-01-07T02:14:37;7.43;;;6.73;;
73872;SDS011;62206;47.568;9.364;2024-01-07T02:17:04;7.85;;;7.15;;
73872;SDS011;62206;47.568;9.364;2024-01-07T02:19:32;8.20;;;7.50;;
73872;SDS011;62206;47.568;9.364;2024-01-07T02:22:00;7.50;;;6.80;;
73872;SDS011;62206;47.568;9.364;2024-01-07T02:24:28;7.80;;;7.10;;
73872;SDS011;62206;47.568;9.364;2024-01-07T02:26:58;7.33;;;6.43;;
73872;SDS011;62206;47.568;9.364;2024-01-07T02:29:27;7.35;;;6.65;;
73872;SDS011;62206;47.568;9.364;2024-01-07T02:31:54;8.02;;;7.32;;
73872;SDS011;62206;47.568;9.364;2024-01-07T02:34:21;7.57;;;6.88;;
73872;SDS011;62206;47.568;9.364;2024-01-07T02:36:48;7.82;;;7.13;;
73872;SDS011;62206;47.568;9.364;2024-01-07T02:39:15;7.90;;;7.07;;
73872;SDS011;62206;47.568;9.364;2024-01-07T02:41:44;8.02;;;7.22;;
73872;SDS011;62206;47.568;9.364;2024-01-07T02:44:11;9.20;;;8.40;;
73872;SDS011;62206;47.568;9.364;2024-01-07T02:46:38;7.95;;;7.15;;
73872;SDS011;62206;47.568;9.364;2024-01-07T02:49:06;8.55;;;7.75;;
73872;SDS011;62206;47.568;9.364;2024-01-07T02:51:33;8.47;;;7.67;;
73872;SDS011;62206;47.568;9.364;2024-01-07T02:53:59;8.52;;;7.65;;
73872;SDS011;62206;47.568;9.364;2024-01-07T02:56:28;9.15;;;8.25;;
73872;SDS011;62206;47.568;9.364;2024-01-07T02:58:56;8.25;;;7.45;;
73872;SDS011;62206;47.568;9.364;2024-01-07T03:01:23;9.23;;;8.32;;
73872;SDS011;62206;47.568;9.364;2024-01-07T03:03:50;8.30;;;7.50;;
73872;SDS011;62206;47.568;9.364;2024-01-07T03:06:17;8.55;;;7.65;;
73872;SDS011;62206;47.568;9.364;2024-01-07T03:08:44;9.10;;;8.20;;
73872;SDS011;62206;47.568;9.364;2024-01-07T03:11:11;8.63;;;7.38;;
73872;SDS011;62206;47.568;9.364;2024-01-07T03:13:39;8.50;;;7.70;;
73872;SDS011;62206;47.568;9.364;2024-01-07T03:16:07;9.23;;;8.33;;
73872;SDS011;62206;47.568;9.364;2024-01-07T03:18:35;9.27;;;8.30;;
73872;SDS011;62206;47.568;9.364;2024-01-07T03:21:02;8.82;;;7.93;;
73872;SDS011;62206;47.568;9.364;2024-01-07T03:23:29;8.57;;;7.68;;
73872;SDS011;62206;47.568;9.364;2024-01-07T03:25:57;8.93;;;7.93;;
73872;SDS011;62206;47.568;9.364;2024-01-07T03:28:24;8.30;;;7.40;;
73872;SDS011;62206;47.568;9.364;2024-01-07T03:30:51;8.93;;;8.02;;
73872;SDS011;62206;47.568;9.364;2024-01-07T03:33:20;9.60;;;8.70;;
73872;SDS011;62206;47.568;9.364;2024-01-07T03:35:47;8.05;;;7.25;;
73872;SDS011;62206;47.568;9.364;2024-01-07T03:38:13;8.82;;;7.93;;
73872;SDS011;62206;47.568;9.364;2024-01-07T03:40:41;9.07;;;8.17;;
73872;SDS011;62206;47.568;9.364;2024-01-07T03:43:08;8.52;;;7.63;;
73872;SDS011;62206;47.568;9.364;2024-01-07T03:45:35;8.45;;;7.60;;
73872;SDS011;62206;47.568;9.364;2024-01-07T03:48:02;8.32;;;7.53;;
73872;SDS011;62206;47.568;9.364;2024-01-07T03:50:31;8.88;;;7.95;;
73872;SDS011;62206;47.568;9.364;2024-01-07T03:52:58;8.23;;;7.00;;
73872;SDS011;62206;47.568;9.364;2024-01-07T03:55:25;8.73;;;7.80;;
73872;SDS011;62206;47.568;9.364;2024-01-07T03:57:52;8.55;;;7.75;;
73872;SDS011;62206;47.568;9.364;2024-01-07T04:00:19;8.38;;;7.57;;
73872;SDS011;62206;47.568;9.364;2024-01-07T04:02:46;8.02;;;7.30;;
73872;SDS011;62206;47.568;9.364;2024-01-07T04:05:13;8.30;;;7.50;;
73872;SDS011;62206;47.568;9.364;2024-01-07T04:07:42;9.77;;;8.77;;
73872;SDS011;62206;47.568;9.364;2024-01-07T04:10:09;9.02;;;8.13;;
73872;SDS011;62206;47.568;9.364;2024-01-07T04:12:36;9.35;;;7.93;;
73872;SDS011;62206;47.568;9.364;2024-01-07T04:15:04;10.25;;;9.25;;
73872;SDS011;62206;47.568;9.364;2024-01-07T04:17:32;8.73;;;7.27;;
73872;SDS011;62206;47.568;9.364;2024-01-07T04:19:58;9.00;;;7.93;;
73872;SDS011;62206;47.568;9.364;2024-01-07T04:22:25;9.05;;;8.15;;
73872;SDS011;62206;47.568;9.364;2024-01-07T04:24:54;8.75;;;7.85;;
73872;SDS011;62206;47.568;9.364;2024-01-07T04:27:21;8.55;;;7.68;;
73872;SDS011;62206;47.568;9.364;2024-01-07T04:29:50;8.43;;;7.20;;
73872;SDS011;62206;47.568;9.364;2024-01-07T04:32:17;9.30;;;8.40;;
73872;SDS011;62206;47.568;9.364;2024-01-07T04:34:44;9.75;;;8.75;;
73872;SDS011;62206;47.568;9.364;2024-01-07T04:37:11;9.25;;;8.35;;
73872;SDS011;62206;47.568;9.364;2024-01-07T04:39:39;9.43;;;8.52;;
73872;SDS011;62206;47.568;9.364;2024-01-07T04:42:07;9.53;;;8.43;;
73872;SDS011;62206;47.568;9.364;2024-01-07T04:44:34;8.80;;;7.90;;
73872;SDS011;62206;47.568;9.364;2024-01-07T04:47:01;7.82;;;7.03;;
73872;SDS011;62206;47.568;9.364;2024-01-07T04:49:28;7.85;;;7.07;;
73872;SDS011;62206;47.568;9.364;2024-01-07T04:51:55;7.97;;;7.18;;
73872;SDS011;62206;47.568;9.364;2024-01-07T04:54:23;7.60;;;6.80;;
73872;SDS011;62206;47.568;9.364;2024-01-07T04:56:49;8.07;;;7.28;;
73872;SDS011;62206;47.568;9.364;2024-01-07T04:59:18;9.00;;;8.10;;
73872;SDS011;62206;47.568;9.364;2024-01-07T05:01:45;7.97;;;7.18;;
73872;SDS011;62206;47.568;9.364;2024-01-07T05:04:12;8.80;;;7.90;;
73872;SDS011;62206;47.568;9.364;2024-01-07T05:06:39;8.67;;;7.70;;
73872;SDS011;62206;47.568;9.364;2024-01-07T05:09:07;8.95;;;8.05;;
73872;SDS011;62206;47.568;9.364;2024-01-07T05:11:38;9.43;;;8.52;;
73872;SDS011;62206;47.568;9.364;2024-01-07T05:14:05;9.23;;;8.23;;
73872;SDS011;62206;47.568;9.364;2024-01-07T05:16:34;8.55;;;7.65;;
73872;SDS011;62206;47.568;9.364;2024-01-07T05:19:01;8.80;;;7.30;;
73872;SDS011;62206;47.568;9.364;2024-01-07T05:21:28;9.05;;;8.13;;
73872;SDS011;62206;47.568;9.364;2024-01-07T05:23:56;9.40;;;8.13;;
73872;SDS011;62206;47.568;9.364;2024-01-07T05:26:23;8.30;;;7.10;;
73872;SDS011;62206;47.568;9.364;2024-01-07T05:28:49;9.27;;;8.32;;
73872;SDS011;62206;47.568;9.364;2024-01-07T05:31:18;9.20;;;7.90;;
73872;SDS011;62206;47.568;9.364;2024-01-07T05:33:46;8.80;;;7.90;;
73872;SDS011;62206;47.568;9.364;2024-01-07T05:36:13;9.40;;;8.48;;
73872;SDS011;62206;47.568;9.364;2024-01-07T05:38:41;9.90;;;8.13;;
73872;SDS011;62206;47.568;9.364;2024-01-07T05:41:08;9.88;;;8.48;;
73872;SDS011;62206;47.568;9.364;2024-01-07T05:46:03;9.35;;;8.35;;
73872;SDS011;62206;47.568;9.364;2024-01-07T05:48:32;11.32;;;9.68;;
73872;SDS011;62206;47.568;9.364;2024-01-07T05:51:09;9.90;;;8.90;;
73872;SDS011;62206;47.568;9.364;2024-01-07T05:53:36;10.25;;;9.13;;
73872;SDS011;62206;47.568;9.364;2024-01-07T05:56:03;11.50;;;9.17;;
73872;SDS011;62206;47.568;9.364;2024-01-07T05:58:31;10.52;;;9.43;;
73872;SDS011;62206;47.568;9.364;2024-01-07T06:00:58;10.73;;;9.57;;
73872;SDS011;62206;47.568;9.364;2024-01-07T06:03:25;9.52;;;8.20;;
73872;SDS011;62206;47.568;9.364;2024-01-07T06:05:53;10.50;;;9.40;;
73872;SDS011;62206;47.568;9.364;2024-01-07T06:08:21;9.73;;;8.73;;
73872;SDS011;62206;47.568;9.364;2024-01-07T06:10:48;10.85;;;9.38;;
73872;SDS011;62206;47.568;9.364;2024-01-07T06:13:16;11.00;;;9.23;;
73872;SDS011;62206;47.568;9.364;2024-01-07T06:15:43;10.50;;;9.40;;
73872;SDS011;62206;47.568;9.364;2024-01-07T06:18:10;10.95;;;9.00;;
73872;SDS011;62206;47.568;9.364;2024-01-07T06:20:37;12.57;;;8.97;;
73872;SDS011;62206;47.568;9.364;2024-01-07T06:23:04;10.52;;;8.65;;
73872;SDS011;62206;47.568;9.364;2024-01-07T06:25:32;11.02;;;9.35;;
73872;SDS011;62206;47.568;9.364;2024-01-07T06:28:00;9.68;;;8.68;;
73872;SDS011;62206;47.568;9.364;2024-01-07T06:30:27;10.25;;;9.15;;
73872;SDS011;62206;47.568;9.364;2024-01-07T06:32:54;9.80;;;8.80;;
73872;SDS011;62206;47.568;9.364;2024-01-07T06:35:22;10.05;;;9.00;;
73872;SDS011;62206;47.568;9.364;2024-01-07T06:37:49;10.68;;;9.50;;
73872;SDS011;62206;47.568;9.364;2024-01-07T06:40:16;10.38;;;9.27;;
73872;SDS011;62206;47.568;9.364;2024-01-07T06:42:45;9.68;;;8.25;;
73872;SDS011;62206;47.568;9.364;2024-01-07T06:45:13;10.63;;;8.43;;
73872;SDS011;62206;47.568;9.364;2024-01-07T06:47:41;9.68;;;8.52;;
73872;SDS011;62206;47.568;9.364;2024-01-07T06:50:09;10.13;;;8.68;;
73872;SDS011;62206;47.568;9.364;2024-01-07T06:52:36;10.10;;;9.07;;
73872;SDS011;62206;47.568;9.364;2024-01-07T06:55:03;10.18;;;8.80;;
73872;SDS011;62206;47.568;9.364;2024-01-07T06:57:31;9.97;;;8.63;;
73872;SDS011;62206;47.568;9.364;2024-01-07T06:59:59;10.77;;;9.40;;
73872;SDS011;62206;47.568;9.364;2024-01-07T07:02:26;10.88;;;9.50;;
73872;SDS011;62206;47.568;9.364;2024-01-07T07:04:54;9.45;;;8.45;;
73872;SDS011;62206;47.568;9.364;2024-01-07T07:07:21;10.27;;;8.80;;
73872;SDS011;62206;47.568;9.364;2024-01-07T07:09:47;9.97;;;8.73;;
73872;SDS011;62206;47.568;9.364;2024-01-07T07:12:15;10.57;;;8.00;;
73872;SDS011;62206;47.568;9.364;2024-01-07T07:14:42;10.70;;;9.60;;
73872;SDS011;62206;47.568;9.364;2024-01-07T07:17:10;9.20;;;8.02;;
73872;SDS011;62206;47.568;9.364;2024-01-07T07:19:37;10.15;;;9.10;;
73872;SDS011;62206;47.568;9.364;2024-01-07T07:22:04;9.30;;;8.27;;
73872;SDS011;62206;47.568;9.364;2024-01-07T07:24:31;9.98;;;8.20;;
73872;SDS011;62206;47.568;9.364;2024-01-07T07:26:58;10.43;;;9.32;;
73872;SDS011;62206;47.568;9.364;2024-01-07T07:29:25;9.77;;;8.77;;
73872;SDS011;62206;47.568;9.364;2024-01-07T07:31:52;9.82;;;8.82;;
73872;SDS011;62206;47.568;9.364;2024-01-07T07:34:21;9.97;;;8.97;;
73872;SDS011;62206;47.568;9.364;2024-01-07T07:36:48;9.90;;;8.90;;
73872;SDS011;62206;47.568;9.364;2024-01-07T07:39:15;9.93;;;8.80;;
73872;SDS011;62206;47.568;9.364;2024-01-07T07:41:42;10.15;;;8.73;;
73872;SDS011;62206;47.568;9.364;2024-01-07T07:44:09;10.43;;;9.27;;
73872;SDS011;62206;47.568;9.364;2024-01-07T07:46:36;9.43;;;8.43;;
73872;SDS011;62206;47.568;9.364;2024-01-07T07:49:03;10.93;;;9.82;;
73872;SDS011;62206;47.568;9.364;2024-01-07T07:51:32;10.25;;;8.80;;
73872;SDS011;62206;47.568;9.364;2024-01-07T07:53:59;10.15;;;9.10;;
73872;SDS011;62206;47.568;9.364;2024-01-07T07:56:26;9.75;;;8.75;;
73872;SDS011;62206;47.568;9.364;2024-01-07T07:58:54;9.13;;;8.13;;
73872;SDS011;62206;47.568;9.364;2024-01-07T08:01:20;10.07;;;9.07;;
73872;SDS011;62206;47.568;9.364;2024-01-07T08:03:48;10.23;;;9.07;;
73872;SDS011;62206;47.568;9.364;2024-01-07T08:06:15;9.50;;;8.50;;
73872;SDS011;62206;47.568;9.364;2024-01-07T08:08:43;9.77;;;8.77;;
73872;SDS011;62206;47.568;9.364;2024-01-07T08:11:11;9.83;;;8.57;;
73872;SDS011;62206;47.568;9.364;2024-01-07T08:13:37;11.05;;;9.57;;
73872;SDS011;62206;47.568;9.364;2024-01-07T08:16:04;11.25;;;9.77;;
73872;SDS011;62206;47.568;9.364;2024-01-07T08:18:32;10.57;;;9.48;;
73872;SDS011;62206;47.568;9.364;2024-01-07T08:20:59;10.50;;;9.40;;
73872;SDS011;62206;47.568;9.364;2024-01-07T08:23:26;11.00;;;9.87;;
73872;SDS011;62206;47.568;9.364;2024-01-07T08:25:56;10.40;;;9.30;;
73872;SDS011;62206;47.568;9.364;2024-01-07T08:28:23;11.25;;;9.95;;
73872;SDS011;62206;47.568;9.364;2024-01-07T08:30:49;10.18;;;8.85;;
73872;SDS011;62206;47.568;9.364;2024-01-07T08:33:17;10.90;;;9.68;;
73872;SDS011;62206;47.568;9.364;2024-01-07T08:35:44;11.13;;;10.00;;
73872;SDS011;62206;47.568;9.364;2024-01-07T08:38:11;10.98;;;9.65;;
73872;SDS011;62206;47.568;9.364;2024-01-07T08:40:39;12.27;;;10.95;;
73872;SDS011;62206;47.568;9.364;2024-01-07T08:43:06;11.25;;;10.13;;
73872;SDS011;62206;47.568;9.364;2024-01-07T08:45:33;12.15;;;10.85;;
73872;SDS011;62206;47.568;9.364;2024-01-07T08:48:00;10.80;;;9.47;;
73872;SDS011;62206;47.568;9.364;2024-01-07T08:50:27;11.32;;;10.13;;
73872;SDS011;62206;47.568;9.364;2024-01-07T08:52:55;12.20;;;10.88;;
73872;SDS011;62206;47.568;9.364;2024-01-07T08:55:22;12.88;;;10.85;;
73872;SDS011;62206;47.568;9.364;2024-01-07T08:57:49;13.23;;;11.30;;
73872;SDS011;62206;47.568;9.364;2024-01-07T09:00:18;13.17;;;11.00;;
73872;SDS011;62206;47.568;9.364;2024-01-07T09:02:47;13.05;;;11.52;;
73872;SDS011;62206;47.568;9.364;2024-01-07T09:05:14;12.70;;;11.40;;
73872;SDS011;62206;47.568;9.364;2024-01-07T09:07:41;12.93;;;11.43;;
73872;SDS011;62206;47.568;9.364;2024-01-07T09:10:08;12.02;;;10.68;;
73872;SDS011;62206;47.568;9.364;2024-01-07T09:12:36;12.70;;;11.40;;
73872;SDS011;62206;47.568;9.364;2024-01-07T09:15:04;13.30;;;11.55;;
73872;SDS011;62206;47.568;9.364;2024-01-07T09:17:35;13.43;;;11.40;;
73872;SDS011;62206;47.568;9.364;2024-01-07T09:20:03;13.50;;;11.48;;
73872;SDS011;62206;47.568;9.364;2024-01-07T09:22:33;12.50;;;11.20;;
73872;SDS011;62206;47.568;9.364;2024-01-07T09:25:01;14.23;;;11.53;;
73872;SDS011;62206;47.568;9.364;2024-01-07T09:27:28;12.50;;;11.20;;
73872;SDS011;62206;47.568;9.364;2024-01-07T09:29:56;14.13;;;11.73;;
73872;SDS011;62206;47.568;9.364;2024-01-07T09:32:23;13.05;;;11.20;;
73872;SDS011;62206;47.568;9.364;2024-01-07T09:34:51;13.32;;;11.55;;
73872;SDS011;62206;47.568;9.364;2024-01-07T09:37:19;14.27;;;11.93;;
73872;SDS011;62206;47.568;9.364;2024-01-07T09:39:46;14.13;;;12.32;;
73872;SDS011;62206;47.568;9.364;2024-01-07T09:42:13;14.05;;;12.48;;
73872;SDS011;62206;47.568;9.364;2024-01-07T09:44:41;14.10;;;11.93;;
73872;SDS011;62206;47.568;9.364;2024-01-07T09:47:10;14.40;;;12.48;;
73872;SDS011;62206;47.568;9.364;2024-01-07T09:49:37;12.63;;;11.17;;
73872;SDS011;62206;47.568;9.364;2024-01-07T09:52:07;13.05;;;10.88;;
73872;SDS011;62206;47.568;9.364;2024-01-07T09:54:35;13.88;;;12.38;;
73872;SDS011;62206;47.568;9.364;2024-01-07T09:57:03;12.65;;;10.85;;
73872;SDS011;62206;47.568;9.364;2024-01-07T09:59:32;13.25;;;11.57;;
73872;SDS011;62206;47.568;9.364;2024-01-07T10:02:00;13.00;;;11.47;;
73872;SDS011;62206;47.568;9.364;2024-01-07T10:04:27;12.50;;;10.23;;
73872;SDS011;62206;47.568;9.364;2024-01-07T10:06:54;12.75;;;11.45;;
73872;SDS011;62206;47.568;9.364;2024-01-07T10:09:23;12.65;;;10.82;;
73872;SDS011;62206;47.568;9.364;2024-01-07T10:11:51;13.05;;;11.65;;
73872;SDS011;62206;47.568;9.364;2024-01-07T10:14:19;13.10;;;10.97;;
73872;SDS011;62206;47.568;9.364;2024-01-07T10:16:47;13.80;;;11.85;;
73872;SDS011;62206;47.568;9.364;2024-01-07T10:19:18;14.38;;;11.60;;
73872;SDS011;62206;47.568;9.364;2024-01-07T10:21:56;12.55;;;10.48;;
73872;SDS011;62206;47.568;9.364;2024-01-07T10:24:27;11.95;;;10.65;;
73872;SDS011;62206;47.568;9.364;2024-01-07T10:27:03;12.60;;;11.30;;
73872;SDS011;62206;47.568;9.364;2024-01-07T10:29:30;13.88;;;11.95;;
73872;SDS011;62206;47.568;9.364;2024-01-07T10:31:57;25.05;;;19.58;;
73872;SDS011;62206;47.568;9.364;2024-01-07T10:34:25;31.75;;;22.50;;
73872;SDS011;62206;47.568;9.364;2024-01-07T10:36:52;17.17;;;15.30;;
73872;SDS011;62206;47.568;9.364;2024-01-07T10:39:21;22.33;;;15.40;;
73872;SDS011;62206;47.568;9.364;2024-01-07T10:41:50;16.42;;;12.85;;
73872;SDS011;62206;47.568;9.364;2024-01-07T10:44:22;14.45;;;12.52;;
73872;SDS011;62206;47.568;9.364;2024-01-07T10:46:50;12.93;;;11.27;;
73872;SDS011;62206;47.568;9.364;2024-01-07T10:49:20;13.55;;;11.68;;
73872;SDS011;62206;47.568;9.364;2024-01-07T10:51:48;13.20;;;11.40;;
73872;SDS011;62206;47.568;9.364;2024-01-07T10:56:51;13.38;;;11.98;;
73872;SDS011;62206;47.568;9.364;2024-01-07T10:59:23;14.10;;;12.23;;
73872;SDS011;62206;47.568;9.364;2024-01-07T11:01:51;13.52;;;11.77;;
73872;SDS011;62206;47.568;9.364;2024-01-07T11:04:20;14.87;;;12.27;;
73872;SDS011;62206;47.568;9.364;2024-01-07T11:06:51;12.73;;;11.07;;
73872;SDS011;62206;47.568;9.364;2024-01-07T11:09:24;14.30;;;12.02;;
73872;SDS011;62206;47.568;9.364;2024-01-07T11:11:59;12.60;;;10.50;;
73872;SDS011;62206;47.568;9.364;2024-01-07T11:14:36;11.88;;;10.40;;
73872;SDS011;62206;47.568;9.364;2024-01-07T11:17:05;12.17;;;10.50;;
73872;SDS011;62206;47.568;9.364;2024-01-07T11:19:32;12.32;;;10.43;;
73872;SDS011;62206;47.568;9.364;2024-01-07T11:24:50;12.45;;;10.65;;
73872;SDS011;62206;47.568;9.364;2024-01-07T11:27:20;12.10;;;9.95;;
73872;SDS011;62206;47.568;9.364;2024-01-07T11:29:52;12.47;;;10.67;;
73872;SDS011;62206;47.568;9.364;2024-01-07T11:32:21;13.73;;;11.48;;
73872;SDS011;62206;47.568;9.364;2024-01-07T11:34:50;13.23;;;11.48;;
73872;SDS011;62206;47.568;9.364;2024-01-07T11:37:18;14.80;;;11.75;;
73872;SDS011;62206;47.568;9.364;2024-01-07T11:39:46;13.20;;;11.68;;
73872;SDS011;62206;47.568;9.364;2024-01-07T11:42:14;12.97;;;10.87;;
73872;SDS011;62206;47.568;9.364;2024-01-07T11:44:46;13.48;;;11.02;;
73872;SDS011;62206;47.568;9.364;2024-01-07T11:47:14;12.02;;;10.75;;
73872;SDS011;62206;47.568;9.364;2024-01-07T11:49:42;14.63;;;12.30;;
73872;SDS011;62206;47.568;9.364;2024-01-07T11:52:09;12.77;;;11.40;;
73872;SDS011;62206;47.568;9.364;2024-01-07T11:54:37;13.07;;;11.27;;
73872;SDS011;62206;47.568;9.364;2024-01-07T11:57:04;12.35;;;11.05;;
73872;SDS011;62206;47.568;9.364;2024-01-07T11:59:31;11.43;;;10.10;;
73872;SDS011;62206;47.568;9.364;2024-01-07T12:02:00;12.35;;;10.60;;
73872;SDS011;62206;47.568;9.364;2024-01-07T12:04:29;11.98;;;10.55;;
73872;SDS011;62206;47.568;9.364;2024-01-07T12:06:56;13.77;;;11.90;;
73872;SDS011;62206;47.568;9.364;2024-01-07T12:09:24;11.52;;;10.10;;
73872;SDS011;62206;47.568;9.364;2024-01-07T12:11:51;12.05;;;10.57;;
73872;SDS011;62206;47.568;9.364;2024-01-07T12:14:18;11.30;;;9.60;;
73872;SDS011;62206;47.568;9.364;2024-01-07T12:16:46;10.70;;;9.60;;
73872;SDS011;62206;47.568;9.364;2024-01-07T12:19:14;10.87;;;9.43;;
73872;SDS011;62206;47.568;9.364;2024-01-07T12:21:41;9.65;;;8.32;;
73872;SDS011;62206;47.568;9.364;2024-01-07T12:24:09;12.15;;;10.43;;
73872;SDS011;62206;47.568;9.364;2024-01-07T12:26:35;10.77;;;9.68;;
73872;SDS011;62206;47.568;9.364;2024-01-07T12:29:02;11.07;;;9.65;;
73872;SDS011;62206;47.568;9.364;2024-01-07T12:31:31;10.27;;;9.17;;
73872;SDS011;62206;47.568;9.364;2024-01-07T12:33:58;9.85;;;8.73;;
73872;SDS011;62206;47.568;9.364;2024-01-07T12:36:26;10.27;;;9.23;;
73872;SDS011;62206;47.568;9.364;2024-01-07T12:38:53;10.00;;;8.75;;
73872;SDS011;62206;47.568;9.364;2024-01-07T12:41:21;10.55;;;9.45;;
73872;SDS011;62206;47.568;9.364;2024-01-07T12:43:48;10.73;;;9.07;;
73872;SDS011;62206;47.568;9.364;2024-01-07T12:46:16;10.43;;;9.35;;
73872;SDS011;62206;47.568;9.364;2024-01-07T12:48:42;10.98;;;9.25;;
73872;SDS011;62206;47.568;9.364;2024-01-07T12:51:09;10.35;;;8.80;;
73872;SDS011;62206;47.568;9.364;2024-01-07T12:53:38;10.85;;;9.63;;
73872;SDS011;62206;47.568;9.364;2024-01-07T12:56:05;11.07;;;9.30;;
73872;SDS011;62206;47.568;9.364;2024-01-07T12:58:32;9.73;;;8.50;;
73872;SDS011;62206;47.568;9.364;2024-01-07T13:01:00;10.18;;;9.05;;
73872;SDS011;62206;47.568;9.364;2024-01-07T13:03:27;10.45;;;9.07;;
73872;SDS011;62206;47.568;9.364;2024-01-07T13:05:54;10.77;;;9.63;;
73872;SDS011;62206;47.568;9.364;2024-01-07T13:08:21;10.67;;;9.57;;
73872;SDS011;62206;47.568;9.364;2024-01-07T13:10:52;9.90;;;8.13;;
73872;SDS011;62206;47.568;9.364;2024-01-07T13:13:20;10.90;;;9.73;;
73872;SDS011;62206;47.568;9.364;2024-01-07T13:15:47;9.15;;;8.25;;
73872;SDS011;62206;47.568;9.364;2024-01-07T13:18:16;8.90;;;8.00;;
73872;SDS011;62206;47.568;9.364;2024-01-07T13:20:43;8.90;;;8.00;;
73872;SDS011;62206;47.568;9.364;2024-01-07T13:23:10;54.75;;;26.60;;
73872;SDS011;62206;47.568;9.364;2024-01-07T13:25:37;19.70;;;12.75;;
73872;SDS011;62206;47.568;9.364;2024-01-07T13:28:05;10.70;;;8.60;;
73872;SDS011;62206;47.568;9.364;2024-01-07T13:30:37;9.38;;;8.35;;
73872;SDS011;62206;47.568;9.364;2024-01-07T13:33:05;9.00;;;8.10;;
73872;SDS011;62206;47.568;9.364;2024-01-07T13:35:33;9.38;;;8.38;;
73872;SDS011;62206;47.568;9.364;2024-01-07T13:38:00;9.57;;;8.57;;
73872;SDS011;62206;47.568;9.364;2024-01-07T13:40:28;9.80;;;8.80;;
73872;SDS011;62206;47.568;9.364;2024-01-07T13:42:55;11.63;;;8.85;;
73872;SDS011;62206;47.568;9.364;2024-01-07T13:45:24;9.90;;;8.13;;
73872;SDS011;62206;47.568;9.364;2024-01-07T13:47:50;9.50;;;8.50;;
73872;SDS011;62206;47.568;9.364;2024-01-07T13:50:17;19.98;;;12.38;;
73872;SDS011;62206;47.568;9.364;2024-01-07T13:52:45;10.38;;;8.95;;
73872;SDS011;62206;47.568;9.364;2024-01-07T13:55:12;19.75;;;13.25;;
73872;SDS011;62206;47.568;9.364;2024-01-07T13:57:38;10.23;;;9.00;;
73872;SDS011;62206;47.568;9.364;2024-01-07T14:00:07;9.32;;;8.43;;
73872;SDS011;62206;47.568;9.364;2024-01-07T14:02:36;10.25;;;9.18;;
73872;SDS011;62206;47.568;9.364;2024-01-07T14:05:04;9.38;;;7.85;;
73872;SDS011;62206;47.568;9.364;2024-01-07T14:07:34;8.70;;;7.80;;
73872;SDS011;62206;47.568;9.364;2024-01-07T14:10:01;8.17;;;7.37;;
73872;SDS011;62206;47.568;9.364;2024-01-07T14:12:29;9.07;;;8.10;;
73872;SDS011;62206;47.568;9.364;2024-01-07T14:14:57;9.15;;;8.25;;
73872;SDS011;62206;47.568;9.364;2024-01-07T14:17:24;8.85;;;7.35;;
73872;SDS011;62206;47.568;9.364;2024-01-07T14:19:53;9.68;;;8.65;;
73872;SDS011;62206;47.568;9.364;2024-01-07T14:22:20;8.53;;;7.33;;
73872;SDS011;62206;47.568;9.364;2024-01-07T14:24:47;9.25;;;8.25;;
73872;SDS011;62206;47.568;9.364;2024-01-07T14:27:15;9.18;;;8.10;;
73872;SDS011;62206;47.568;9.364;2024-01-07T14:29:42;10.30;;;7.57;;
73872;SDS011;62206;47.568;9.364;2024-01-07T14:32:09;8.75;;;7.82;;
73872;SDS011;62206;47.568;9.364;2024-01-07T14:34:37;8.77;;;7.87;;
73872;SDS011;62206;47.568;9.364;2024-01-07T14:37:08;9.20;;;8.02;;
73872;SDS011;62206;47.568;9.364;2024-01-07T14:39:36;10.40;;;8.57;;
73872;SDS011;62206;47.568;9.364;2024-01-07T14:42:03;9.13;;;7.97;;
73872;SDS011;62206;47.568;9.364;2024-01-07T14:44:30;10.15;;;9.15;;
73872;SDS011;62206;47.568;9.364;2024-01-07T14:46:57;9.70;;;8.47;;
73872;SDS011;62206;47.568;9.364;2024-01-07T14:49:24;9.80;;;8.60;;